createdAt,value
2023-03-18T00:00:11.471Z,4.76
2023-03-18T00:02:40.385Z,4.73
2023-03-18T00:05:08.743Z,4.79
2023-03-18T00:07:36.440Z,4.81
2023-03-18T00:10:05.045Z,4.84
2023-03-18T00:12:33.144Z,4.71
2023-03-18T00:15:01.015Z,4.77
2023-03-18T00:17:27.586Z,4.72
2023-03-18T00:19:54.719Z,4.79
2023-03-18T00:22:21.718Z,4.76
2023-03-18T00:24:49.022Z,4.81
2023-03-18T00:27:15.913Z,4.79
2023-03-18T00:29:42.833Z,4.73
2023-03-18T00:32:09.902Z,4.62
2023-03-18T00:34:36.410Z,4.52
2023-03-18T00:37:03.664Z,4.70
2023-03-18T00:39:32.952Z,4.64
2023-03-18T00:42:01.990Z,4.65
2023-03-18T00:44:28.780Z,4.57
2023-03-18T00:46:55.588Z,4.50
2023-03-18T00:49:22.044Z,4.57
2023-03-18T00:51:48.486Z,4.50
2023-03-18T00:54:18.570Z,4.45
2023-03-18T00:56:45.492Z,4.46
2023-03-18T00:59:11.960Z,4.50
2023-03-18T01:01:39.074Z,4.51
2023-03-18T01:04:07.216Z,4.38
2023-03-18T01:06:37.451Z,4.37
2023-03-18T01:09:09.055Z,4.41
2023-03-18T01:11:35.537Z,4.34
2023-03-18T01:14:02.233Z,4.41
2023-03-18T01:16:29.976Z,4.25
2023-03-18T01:18:57.310Z,4.25
2023-03-18T01:21:24.289Z,4.27
2023-03-18T01:23:50.772Z,4.28
2023-03-18T01:26:17.439Z,4.28
2023-03-18T01:28:44.161Z,4.20
2023-03-18T01:31:12.568Z,4.30
2023-03-18T01:33:40.234Z,4.19
2023-03-18T01:36:08.132Z,4.15
2023-03-18T01:38:34.666Z,4.25
2023-03-18T01:41:01.846Z,4.20
2023-03-18T01:43:34.434Z,4.24
2023-03-18T01:46:02.881Z,4.29
2023-03-18T01:48:31.629Z,4.20
2023-03-18T01:51:05.857Z,4.37
2023-03-18T01:53:39.052Z,4.38
2023-03-18T01:56:06.812Z,4.23
2023-03-18T01:58:41.917Z,4.39
2023-03-18T02:01:26.327Z,4.32
2023-03-18T02:03:54.113Z,4.25
2023-03-18T02:10:13.379Z,4.07
2023-03-18T02:12:45.569Z,4.13
2023-03-18T02:15:16.494Z,4.12
2023-03-18T02:17:49.373Z,4.06
2023-03-18T02:20:28.393Z,4.04
2023-03-18T02:23:30.500Z,4.19
2023-03-18T02:26:08.360Z,4.24
2023-03-18T02:28:37.526Z,4.23
2023-03-18T02:31:09.570Z,4.20
2023-03-18T02:33:39.178Z,4.15
2023-03-18T02:36:11.032Z,4.08
2023-03-18T02:38:42.211Z,4.20
2023-03-18T02:41:18.237Z,4.12
2023-03-18T02:43:45.486Z,4.26
2023-03-18T02:46:28.814Z,4.22
2023-03-18T02:48:56.479Z,4.22
2023-03-18T02:51:23.601Z,4.16
2023-03-18T02:53:50.799Z,4.15
2023-03-18T02:56:17.576Z,4.26
2023-03-18T02:58:44.710Z,4.27
2023-03-18T03:01:11.671Z,4.27
2023-03-18T03:03:39.006Z,4.18
2023-03-18T03:06:06.340Z,4.07
2023-03-18T03:08:32.815Z,4.12
2023-03-18T03:10:59.421Z,4.15
2023-03-18T03:13:25.934Z,4.24
2023-03-18T03:15:52.489Z,4.20
2023-03-18T03:18:19.038Z,4.27
2023-03-18T03:20:45.793Z,4.29
2023-03-18T03:23:14.482Z,4.33
2023-03-18T03:25:42.073Z,4.29
2023-03-18T03:28:09.769Z,4.31
2023-03-18T03:30:36.793Z,4.30
2023-03-18T03:33:04.313Z,4.29
2023-03-18T03:35:31.580Z,4.31
2023-03-18T03:37:58.180Z,4.32
2023-03-18T03:40:26.023Z,4.30
2023-03-18T03:42:52.776Z,4.21
2023-03-18T03:45:20.140Z,4.27
2023-03-18T03:47:47.132Z,4.21
2023-03-18T03:50:15.863Z,4.29
2023-03-18T03:52:43.642Z,4.26
2023-03-18T03:55:13.308Z,4.26
2023-03-18T03:57:41.889Z,4.21
2023-03-18T04:00:14.432Z,4.24
2023-03-18T04:02:43.475Z,4.23
2023-03-18T04:05:11.422Z,4.22
2023-03-18T04:07:38.826Z,4.25
2023-03-18T04:10:06.235Z,4.24
2023-03-18T04:12:32.642Z,4.20
2023-03-18T04:14:59.142Z,4.24
2023-03-18T04:17:25.640Z,4.20
2023-03-18T04:19:52.257Z,4.21
2023-03-18T04:22:18.773Z,4.24
2023-03-18T04:24:45.692Z,4.20
2023-03-18T04:27:12.757Z,4.23
2023-03-18T04:29:39.742Z,4.14
2023-03-18T04:32:06.230Z,4.16
2023-03-18T04:34:32.769Z,4.15
2023-03-18T04:36:59.287Z,4.18
2023-03-18T04:39:25.884Z,4.17
2023-03-18T04:41:52.377Z,4.12
2023-03-18T04:44:19.303Z,4.13
2023-03-18T04:46:46.174Z,4.16
2023-03-18T04:49:12.993Z,4.16
2023-03-18T04:51:39.978Z,4.15
2023-03-18T04:54:06.461Z,4.11
2023-03-18T04:56:34.326Z,4.03
2023-03-18T04:59:00.763Z,4.04
2023-03-18T05:01:27.184Z,4.03
2023-03-18T05:03:53.786Z,4.02
2023-03-18T05:06:23.254Z,4.02
2023-03-18T05:08:50.111Z,4.00
2023-03-18T05:11:17.644Z,3.98
2023-03-18T05:13:44.175Z,4.00
2023-03-18T05:16:10.861Z,4.03
2023-03-18T05:18:38.223Z,3.99
2023-03-18T05:21:07.351Z,3.98
2023-03-18T05:23:34.294Z,3.97
2023-03-18T05:26:00.805Z,3.99
2023-03-18T05:28:27.693Z,3.90
2023-03-18T05:30:54.189Z,3.86
2023-03-18T05:33:23.121Z,3.89
2023-03-18T05:35:49.867Z,3.91
2023-03-18T05:38:16.316Z,3.91
2023-03-18T05:40:43.499Z,3.93
2023-03-18T05:43:10.435Z,3.94
2023-03-18T05:45:40.206Z,3.85
2023-03-18T05:48:07.121Z,3.80
2023-03-18T05:50:37.126Z,3.80
2023-03-18T05:53:04.612Z,3.88
2023-03-18T05:55:32.345Z,3.81
2023-03-18T05:58:00.288Z,3.92
2023-03-18T06:00:31.669Z,3.88
2023-03-18T06:02:59.636Z,3.84
2023-03-18T06:05:26.864Z,3.81
2023-03-18T06:07:54.794Z,3.79
2023-03-18T06:10:22.770Z,3.84
2023-03-18T06:12:50.591Z,3.94
2023-03-18T06:15:18.813Z,3.87
2023-03-18T06:17:45.604Z,3.94
2023-03-18T06:20:14.215Z,3.90
2023-03-18T06:22:40.960Z,3.91
2023-03-18T06:25:08.317Z,3.92
2023-03-18T06:27:35.505Z,3.94
2023-03-18T06:30:04.616Z,4.00
2023-03-18T06:32:31.838Z,4.09
2023-03-18T06:34:58.388Z,3.99
2023-03-18T06:37:24.911Z,4.00
2023-03-18T06:39:51.459Z,4.05
2023-03-18T06:42:17.999Z,3.98
2023-03-18T06:44:50.415Z,4.01
2023-03-18T06:47:21.991Z,4.03
2023-03-18T06:49:49.873Z,4.23
2023-03-18T06:52:18.090Z,4.24
2023-03-18T06:54:45.787Z,4.12
2023-03-18T06:57:13.497Z,4.18
2023-03-18T06:59:40.761Z,4.24
2023-03-18T07:02:08.634Z,4.40
2023-03-18T07:04:35.474Z,4.53
2023-03-18T07:07:02.230Z,4.65
2023-03-18T07:09:29.100Z,4.76
2023-03-18T07:11:55.597Z,4.82
2023-03-18T07:14:22.967Z,4.97
2023-03-18T07:16:49.968Z,5.00
2023-03-18T07:19:17.833Z,5.12
2023-03-18T07:21:45.985Z,5.35
2023-03-18T07:24:12.704Z,5.60
2023-03-18T07:26:39.199Z,5.81
2023-03-18T07:29:05.960Z,5.81
2023-03-18T07:31:32.604Z,5.76
2023-03-18T07:33:59.183Z,5.78
2023-03-18T07:36:26.687Z,5.97
2023-03-18T07:38:53.295Z,6.31
2023-03-18T07:41:19.730Z,6.65
2023-03-18T07:43:46.572Z,7.06
2023-03-18T07:46:13.105Z,7.39
2023-03-18T07:48:39.614Z,7.00
2023-03-18T07:51:06.153Z,7.69
2023-03-18T07:53:33.779Z,7.80
2023-03-18T07:56:00.691Z,8.00
2023-03-18T07:58:27.180Z,7.87
2023-03-18T08:00:54.068Z,8.09
2023-03-18T08:03:20.639Z,8.45
2023-03-18T08:05:47.144Z,8.12
2023-03-18T08:08:13.858Z,7.97
2023-03-18T08:10:40.529Z,8.35
2023-03-18T08:13:07.019Z,8.85
2023-03-18T08:15:33.906Z,9.22
2023-03-18T08:18:00.827Z,9.49
2023-03-18T08:20:27.579Z,9.52
2023-03-18T08:22:54.162Z,9.49
2023-03-18T08:25:22.902Z,10.12
2023-03-18T08:27:50.848Z,10.77
2023-03-18T08:30:17.536Z,10.75
2023-03-18T08:32:44.587Z,10.46
2023-03-18T08:35:12.672Z,11.05
2023-03-18T08:37:39.167Z,10.77
2023-03-18T08:40:06.596Z,10.15
2023-03-18T08:42:33.102Z,10.02
2023-03-18T08:44:59.681Z,9.82
2023-03-18T08:47:27.416Z,9.89
2023-03-18T08:49:53.924Z,9.25
2023-03-18T08:52:20.401Z,9.95
2023-03-18T08:54:47.836Z,10.31
2023-03-18T08:57:14.308Z,10.44
2023-03-18T08:59:40.825Z,10.43
2023-03-18T09:02:08.208Z,10.64
2023-03-18T09:04:34.604Z,10.30
2023-03-18T09:07:01.491Z,10.23
2023-03-18T09:09:41.041Z,10.10
2023-03-18T09:12:11.819Z,10.09
2023-03-18T09:14:38.837Z,10.54
2023-03-18T09:17:06.322Z,10.79
2023-03-18T09:19:32.850Z,11.35
2023-03-18T09:21:59.290Z,12.20
2023-03-18T09:24:25.821Z,11.81
2023-03-18T09:26:52.577Z,12.13
2023-03-18T09:29:20.572Z,12.01
2023-03-18T09:31:47.075Z,12.25
2023-03-18T09:34:14.498Z,12.26
2023-03-18T09:36:42.357Z,12.36
2023-03-18T09:39:10.057Z,11.96
2023-03-18T09:41:45.570Z,12.45
2023-03-18T09:44:21.554Z,13.05
2023-03-18T09:47:18.621Z,13.61
2023-03-18T09:50:21.152Z,13.77
2023-03-18T09:52:53.920Z,13.23
2023-03-18T09:55:40.243Z,14.28
2023-03-18T09:58:24.573Z,14.75
2023-03-18T10:00:56.008Z,15.48
2023-03-18T10:03:34.468Z,15.08
2023-03-18T10:06:07.970Z,15.64
2023-03-18T10:11:24.079Z,15.94
2023-03-18T10:22:54.901Z,17.00
2023-03-18T10:25:27.695Z,15.91
2023-03-18T10:28:18.239Z,15.12
2023-03-18T10:31:16.815Z,15.71
2023-03-18T10:33:43.656Z,15.49
2023-03-18T10:36:31.785Z,15.82
2023-03-18T10:39:01.144Z,15.22
2023-03-18T10:41:35.855Z,16.14
2023-03-18T10:44:22.565Z,15.09
2023-03-18T10:47:08.003Z,15.48
2023-03-18T10:49:42.846Z,15.71
2023-03-18T10:52:28.454Z,15.68
2023-03-18T10:54:54.909Z,14.76
2023-03-18T10:57:22.144Z,14.90
2023-03-18T10:59:52.119Z,15.54
2023-03-18T11:02:34.897Z,14.62
2023-03-18T11:05:25.034Z,14.77
2023-03-18T11:08:07.859Z,14.65
2023-03-18T11:10:43.650Z,14.98
2023-03-18T11:13:16.510Z,14.35
2023-03-18T11:15:51.313Z,13.64
2023-03-18T11:18:23.031Z,14.03
2023-03-18T11:21:01.291Z,13.48
2023-03-18T11:23:56.244Z,13.39
2023-03-18T11:26:25.178Z,13.09
2023-03-18T11:28:57.713Z,12.98
2023-03-18T11:31:24.701Z,12.92
2023-03-18T11:33:57.704Z,12.88
2023-03-18T11:36:26.827Z,12.62
2023-03-18T11:39:04.428Z,12.75
2023-03-18T11:41:31.038Z,12.85
2023-03-18T11:44:01.802Z,12.83
2023-03-18T11:46:37.575Z,13.89
2023-03-18T11:49:04.268Z,14.53
2023-03-18T11:51:42.898Z,15.12
2023-03-18T11:54:37.560Z,15.74
2023-03-18T11:57:22.854Z,16.13
2023-03-18T12:00:07.659Z,17.34
2023-03-18T12:02:55.182Z,17.44
2023-03-18T12:05:52.380Z,17.10
2023-03-18T12:08:31.678Z,17.19
2023-03-18T12:11:06.446Z,17.26
2023-03-18T12:13:37.456Z,17.70
2023-03-18T12:16:37.276Z,17.88
2023-03-18T12:19:25.137Z,18.31
2023-03-18T12:22:00.604Z,18.18
2023-03-18T12:24:46.974Z,17.05
2023-03-18T12:27:42.784Z,17.65
2023-03-18T12:30:25.145Z,17.44
2023-03-18T12:32:51.681Z,17.42
2023-03-18T12:35:45.836Z,16.26
2023-03-18T12:38:42.168Z,15.74
2023-03-18T12:41:43.990Z,15.40
2023-03-18T12:44:43.017Z,16.53
2023-03-18T12:47:15.281Z,16.83
2023-03-18T12:49:54.229Z,16.38
2023-03-18T12:52:38.008Z,16.46
2023-03-18T12:55:33.666Z,17.25
2023-03-18T12:58:14.248Z,18.06
2023-03-18T13:00:54.775Z,19.08
2023-03-18T13:03:26.361Z,19.92
2023-03-18T13:05:57.287Z,21.01
2023-03-18T13:08:41.906Z,19.96
2023-03-18T13:11:17.356Z,18.82
2023-03-18T13:13:50.056Z,18.86
2023-03-18T13:16:19.311Z,17.38
2023-03-18T13:18:51.650Z,17.19
2023-03-18T13:21:22.965Z,16.93
2023-03-18T13:23:52.069Z,16.36
2023-03-18T13:26:44.073Z,14.96
2023-03-18T13:29:18.350Z,14.46
2023-03-18T13:32:00.518Z,14.63
2023-03-18T13:34:47.980Z,14.37
2023-03-18T13:37:26.193Z,13.83
2023-03-18T13:40:14.229Z,13.85
2023-03-18T13:42:42.298Z,13.93
2023-03-18T13:45:08.954Z,13.58
2023-03-18T13:47:40.651Z,13.33
2023-03-18T13:50:25.834Z,13.52
2023-03-18T13:52:55.810Z,13.66
2023-03-18T13:55:29.693Z,13.77
2023-03-18T13:58:09.256Z,14.10
2023-03-18T14:00:40.518Z,13.71
2023-03-18T14:03:29.883Z,13.49
2023-03-18T14:06:16.345Z,13.32
2023-03-18T14:08:42.934Z,13.40
2023-03-18T14:11:16.657Z,13.15
2023-03-18T14:13:54.515Z,13.27
2023-03-18T14:16:37.711Z,13.21
2023-03-18T14:19:24.132Z,13.02
2023-03-18T14:22:06.979Z,13.06
2023-03-18T14:24:33.730Z,13.37
2023-03-18T14:27:06.649Z,13.45
2023-03-18T14:29:45.296Z,13.05
2023-03-18T14:32:38.610Z,13.19
2023-03-18T14:35:17.205Z,13.32
2023-03-18T14:38:17.502Z,13.31
2023-03-18T14:40:51.546Z,13.25
2023-03-18T14:43:54.491Z,13.14
2023-03-18T14:46:27.124Z,13.06
2023-03-18T14:48:54.073Z,13.11
2023-03-18T14:51:22.482Z,12.75
2023-03-18T14:54:20.819Z,12.67
2023-03-18T14:56:54.181Z,12.74
2023-03-18T14:59:25.583Z,13.27
2023-03-18T15:01:53.821Z,13.51
2023-03-18T15:04:25.938Z,13.34
2023-03-18T15:06:54.335Z,13.19
2023-03-18T15:09:27.372Z,13.00
2023-03-18T15:11:54.404Z,13.22
2023-03-18T15:14:31.699Z,13.34
2023-03-18T15:17:04.559Z,13.51
2023-03-18T15:19:32.634Z,12.93
2023-03-18T15:22:06.019Z,13.21
2023-03-18T15:24:32.986Z,13.62
2023-03-18T15:27:13.519Z,13.77
2023-03-18T15:29:53.171Z,12.94
2023-03-18T15:32:28.443Z,12.77
2023-03-18T15:35:06.468Z,13.16
2023-03-18T15:37:41.966Z,13.41
2023-03-18T15:40:23.491Z,13.37
2023-03-18T15:42:50.751Z,13.32
2023-03-18T15:45:21.242Z,13.24
2023-03-18T15:47:48.672Z,12.94
2023-03-18T15:50:28.334Z,13.01
2023-03-18T15:53:20.395Z,13.17
2023-03-18T15:55:53.983Z,13.14
2023-03-18T15:58:25.386Z,13.15
2023-03-18T16:00:53.187Z,12.88
2023-03-18T16:03:25.966Z,13.21
2023-03-18T16:05:53.569Z,13.20
2023-03-18T16:08:21.062Z,13.10
2023-03-18T16:10:50.863Z,12.79
2023-03-18T16:13:21.648Z,12.72
2023-03-18T16:15:48.411Z,12.91
2023-03-18T16:18:16.197Z,13.16
2023-03-18T16:20:45.539Z,13.09
2023-03-18T16:23:15.136Z,13.03
2023-03-18T16:25:43.597Z,12.99
2023-03-18T16:28:17.918Z,13.04
2023-03-18T16:30:44.905Z,13.04
2023-03-18T16:33:14.499Z,12.89
2023-03-18T16:35:41.286Z,12.83
2023-03-18T16:38:16.603Z,12.79
2023-03-18T16:40:44.467Z,12.76
2023-03-18T16:43:27.300Z,12.66
2023-03-18T16:45:58.301Z,12.66
2023-03-18T16:48:26.970Z,12.61
2023-03-18T16:50:55.905Z,12.53
2023-03-18T16:53:29.697Z,12.49
2023-03-18T16:56:04.300Z,12.41
2023-03-18T16:58:35.052Z,12.47
2023-03-18T17:01:04.669Z,12.41
2023-03-18T17:03:31.596Z,12.22
2023-03-18T17:05:58.344Z,12.34
2023-03-18T17:08:24.823Z,12.38
2023-03-18T17:10:55.397Z,12.38
2023-03-18T17:13:25.895Z,12.29
2023-03-18T17:15:52.916Z,12.34
2023-03-18T17:18:21.736Z,12.30
2023-03-18T17:20:48.965Z,12.31
2023-03-18T17:23:27.054Z,12.25
2023-03-18T17:26:02.672Z,12.28
2023-03-18T17:28:37.336Z,12.17
2023-03-18T17:31:04.481Z,12.07
2023-03-18T17:33:33.842Z,12.04
2023-03-18T17:36:01.873Z,12.01
2023-03-18T17:38:30.597Z,11.86
2023-03-18T17:40:57.853Z,11.85
2023-03-18T17:43:27.664Z,11.81
2023-03-18T17:45:56.541Z,11.82
2023-03-18T17:48:25.745Z,11.75
2023-03-18T17:50:55.718Z,11.72
2023-03-18T17:53:22.092Z,11.76
2023-03-18T17:55:48.767Z,11.72
2023-03-18T17:58:20.286Z,11.62
2023-03-18T18:00:48.126Z,11.58
2023-03-18T18:03:21.960Z,11.58
2023-03-18T18:05:48.676Z,11.46
2023-03-18T18:08:17.610Z,11.44
2023-03-18T18:10:45.313Z,11.45
2023-03-18T18:13:20.660Z,11.36
2023-03-18T18:15:48.445Z,11.33
2023-03-18T18:18:23.215Z,11.25
2023-03-18T18:20:54.745Z,11.18
2023-03-18T18:23:33.333Z,11.17
2023-03-18T18:26:03.142Z,11.24
2023-03-18T18:28:33.011Z,11.26
2023-03-18T18:31:00.971Z,11.25
2023-03-18T18:33:27.637Z,11.27
2023-03-18T18:35:54.417Z,11.26
2023-03-18T18:38:21.036Z,11.19
2023-03-18T18:40:49.100Z,11.09
2023-03-18T18:43:15.654Z,11.06
2023-03-18T18:45:42.241Z,10.91
2023-03-18T18:48:14.723Z,10.86
2023-03-18T18:50:42.609Z,10.87
2023-03-18T18:53:21.463Z,10.84
2023-03-18T18:55:49.298Z,10.83
2023-03-18T18:58:20.165Z,10.76
2023-03-18T19:00:49.338Z,10.75
2023-03-18T19:03:19.184Z,10.74
2023-03-18T19:05:47.071Z,10.71
2023-03-18T19:08:25.045Z,10.69
2023-03-18T19:10:53.425Z,10.71
2023-03-18T19:13:20.699Z,10.78
2023-03-18T19:15:48.594Z,10.83
2023-03-18T19:18:21.078Z,10.87
2023-03-18T19:20:48.441Z,10.79
2023-03-18T19:23:16.761Z,10.85
2023-03-18T19:25:43.938Z,10.83
2023-03-18T19:28:20.912Z,10.78
2023-03-18T19:30:47.965Z,10.66
2023-03-18T19:33:16.508Z,10.76
2023-03-18T19:35:43.867Z,10.76
2023-03-18T19:38:21.421Z,10.69
2023-03-18T19:40:49.565Z,10.60
2023-03-18T19:43:18.325Z,10.39
2023-03-18T19:45:46.837Z,10.32
2023-03-18T19:48:23.886Z,10.41
2023-03-18T19:50:51.258Z,10.36
2023-03-18T19:53:18.641Z,10.21
2023-03-18T19:55:47.264Z,10.32
2023-03-18T19:58:23.111Z,10.23
2023-03-18T20:00:49.666Z,10.21
2023-03-18T20:03:18.440Z,10.14
2023-03-18T20:05:45.574Z,10.19
2023-03-18T20:08:12.256Z,10.09
2023-03-18T20:10:41.111Z,9.99
2023-03-18T20:13:14.603Z,9.93
2023-03-18T20:15:41.197Z,9.92
2023-03-18T20:18:16.916Z,9.92
2023-03-18T20:20:47.201Z,9.89
2023-03-18T20:23:22.317Z,9.86
2023-03-18T20:25:51.258Z,9.79
2023-03-18T20:28:23.290Z,9.73
2023-03-18T20:30:52.110Z,9.73
2023-03-18T20:33:20.024Z,9.69
2023-03-18T20:35:48.208Z,9.64
2023-03-18T20:38:37.608Z,9.68
2023-03-18T20:41:05.688Z,9.55
2023-03-18T20:43:32.585Z,9.56
2023-03-18T20:46:01.127Z,9.52
2023-03-18T20:48:28.279Z,9.61
2023-03-18T20:50:55.263Z,9.50
2023-03-18T20:53:31.617Z,9.44
2023-03-18T20:55:58.178Z,9.38
2023-03-18T20:58:29.022Z,9.34
2023-03-18T21:00:55.654Z,9.37
2023-03-18T21:03:30.908Z,9.23
2023-03-18T21:06:00.150Z,9.23
2023-03-18T21:08:27.731Z,9.18
2023-03-18T21:10:55.153Z,9.22
2023-03-18T21:13:32.730Z,9.21
2023-03-18T21:16:00.675Z,9.14
2023-03-18T21:18:27.699Z,9.09
2023-03-18T21:20:55.351Z,8.98
2023-03-18T21:23:23.391Z,9.02
2023-03-18T21:25:51.148Z,8.85
2023-03-18T21:28:19.742Z,8.88
2023-03-18T21:30:52.130Z,8.84
2023-03-18T21:33:21.730Z,8.79
2023-03-18T21:35:50.242Z,8.57
2023-03-18T21:38:17.275Z,8.71
2023-03-18T21:40:44.043Z,8.61
2023-03-18T21:43:33.613Z,8.61
2023-03-18T21:46:01.784Z,8.61
2023-03-18T21:48:28.986Z,8.63
2023-03-18T21:50:55.671Z,8.59
2023-03-18T21:53:24.286Z,8.55
2023-03-18T21:55:51.929Z,8.53
2023-03-18T21:58:20.857Z,8.50
2023-03-18T22:00:54.908Z,8.49
2023-03-18T22:03:23.544Z,8.36
2023-03-18T22:05:52.611Z,8.28
2023-03-18T22:08:20.574Z,8.30
2023-03-18T22:10:48.959Z,8.39
2023-03-18T22:13:21.366Z,8.28
2023-03-18T22:15:49.598Z,8.20
2023-03-18T22:18:16.613Z,8.19
2023-03-18T22:20:45.365Z,8.28
2023-03-18T22:23:12.849Z,8.17
2023-03-18T22:25:41.172Z,8.13
2023-03-18T22:28:07.913Z,8.23
2023-03-18T22:30:34.846Z,8.18
2023-03-18T22:33:03.706Z,8.18
2023-03-18T22:35:30.402Z,8.11
